Time,TemperatureF,DewpointF,PressureIn,WindDirection,WindDirectionDegrees,WindSpeedMPH,WindSpeedGustMPH,Humidity,HourlyPrecipIn,Conditions,Clouds,dailyrainin,SoftwareType,DateUTC
2013-10-04 00:02:00,68.3,29.0,30.03,NNW,345,11.5,11.5,23,0.00,CLR,,0.00,WeatherDisplay:10.37,2013-10-04 07:02:00,
2013-10-04 00:07:00,68.1,28.9,30.03,NNE,19,12.7,12.7,23,0.00,CLR,,0.00,WeatherDisplay:10.37,2013-10-04 07:07:00,
2013-10-04 00:12:00,68.2,29.0,30.03,NNE,26,11.5,11.5,23,0.00,CLR,,0.00,WeatherDisplay:10.37,2013-10-04 07:12:00,
2013-10-04 00:17:00,68.4,29.1,30.03,NE,34,12.7,12.7,23,0.00,CLR,,0.00,WeatherDisplay:10.37,2013-10-04 07:17:00,
2013-10-04 00:22:00,68.4,29.1,30.03,NNE,20,11.5,11.5,23,0.00,CLR,,0.00,WeatherDisplay:10.37,2013-10-04 07:22:00,
2013-10-04 00:27:00,68.6,29.3,30.03,NNW,342,18.4,18.4,23,0.00,CLR,,0.00,WeatherDisplay:10.37,2013-10-04 07:27:00,
2013-10-04 00:32:00,68.6,29.3,30.03,NNW,343,12.7,12.7,23,0.00,CLR,,0.00,WeatherDisplay:10.37,2013-10-04 07:32:00,
2013-10-04 00:37:00,68.3,29.0,30.03,North,356,12.7,12.7,23,0.00,CLR,,0.00,WeatherDisplay:10.37,2013-10-04 07:37:00,
2013-10-04 00:42:00,68.1,28.9,30.03,NNE,27,10.4,10.4,23,0.00,CLR,,0.00,WeatherDisplay:10.37,2013-10-04 07:42:00,
2013-10-04 00:47:00,68.1,28.9,30.03,North,355,17.3,17.3,23,0.00,CLR,,0.00,WeatherDisplay:10.37,2013-10-04 07:47:00,
2013-10-04 00:52:00,68.3,29.0,30.03,NNW,338,10.4,10.4,23,0.00,CLR,,0.00,WeatherDisplay:10.37,2013-10-04 07:52:00,
2013-10-04 00:57:00,68.2,29.0,30.03,NNW,336,11.5,11.5,23,0.00,CLR,,0.00,WeatherDisplay:10.37,2013-10-04 07:57:00,
2013-10-04 01:02:00,67.9,29.7,30.04,North,353,11.5,11.5,24,0.00,CLR,,0.00,WeatherDisplay:10.37,2013-10-04 08:02:00,
2013-10-04 01:07:00,68.1,28.9,30.04,NNE,16,18.4,18.4,23,0.00,CLR,,0.00,WeatherDisplay:10.37,2013-10-04 08:07:00,
2013-10-04 01:12:00,68.1,28.9,30.04,NNE,28,12.7,12.7,23,0.00,CLR,,0.00,WeatherDisplay:10.37,2013-10-04 08:12:00,
2013-10-04 01:17:00,68.0,28.8,30.04,NNE,26,13.8,13.8,23,0.00,CLR,,0.00,WeatherDisplay:10.37,2013-10-04 08:17:00,
2013-10-04 01:22:00,68.1,28.9,30.03,NNE,13,16.1,16.1,23,0.00,CLR,,0.00,WeatherDisplay:10.37,2013-10-04 08:22:00,
2013-10-04 01:27:00,68.1,28.9,30.03,NE,37,17.3,17.3,23,0.00,CLR,,0.00,WeatherDisplay:10.37,2013-10-04 08:27:00,
2013-10-04 01:32:00,68.3,29.0,30.03,NNW,342,18.4,18.4,23,0.00,CLR,,0.00,WeatherDisplay:10.37,2013-10-04 08:32:00,
2013-10-04 01:37:00,68.2,29.0,30.03,NNE,20,12.0,12.0,23,0.00,CLR,,0.00,WeatherDisplay:10.37,2013-10-04 08:37:00,
2013-10-04 01:42:00,67.9,28.7,30.03,NNE,15,13.0,13.0,23,0.00,CLR,,0.00,WeatherDisplay:10.37,2013-10-04 08:42:00,
2013-10-04 01:47:00,67.6,28.5,30.03,WNW,294,11.5,11.5,23,0.00,CLR,,0.00,WeatherDisplay:10.37,2013-10-04 08:47:00,
2013-10-04 01:52:00,67.7,28.5,30.03,North,353,17.3,17.3,23,0.00,CLR,,0.00,WeatherDisplay:10.37,2013-10-04 08:52:00,
2013-10-04 01:57:00,67.8,28.6,30.03,NNW,339,13.8,13.8,23,0.00,CLR,,0.00,WeatherDisplay:10.37,2013-10-04 08:57:00,
2013-10-04 02:02:00,67.8,28.6,30.04,NNW,347,12.7,12.7,23,0.00,CLR,,0.00,WeatherDisplay:10.37,2013-10-04 09:02:00,
2013-10-04 02:07:00,67.8,27.5,30.03,NNW,342,16.1,16.1,22,0.00,CLR,,0.00,WeatherDisplay:10.37,2013-10-04 09:07:00,
2013-10-04 02:12:00,67.6,28.5,30.03,North,351,20.7,20.7,23,0.00,CLR,,0.00,WeatherDisplay:10.37,2013-10-04 09:12:00,
2013-10-04 02:17:00,67.7,27.5,30.03,NNE,19,19.6,19.6,22,0.00,CLR,,0.00,WeatherDisplay:10.37,2013-10-04 09:17:00,
2013-10-04 02:22:00,67.6,28.5,30.03,WNW,302,11.5,11.5,23,0.00,CLR,,0.00,WeatherDisplay:10.37,2013-10-04 09:22:00,
2013-10-04 02:27:00,67.4,28.3,30.03,NNW,330,17.3,17.3,23,0.00,CLR,,0.00,WeatherDisplay:10.37,2013-10-04 09:27:00,
2013-10-04 02:32:00,67.2,28.1,30.03,NNE,28,11.5,11.5,23,0.00,CLR,,0.00,WeatherDisplay:10.37,2013-10-04 09:32:00,
2013-10-04 02:37:00,66.8,27.8,30.03,NE,56,12.7,12.7,23,0.00,CLR,,0.00,WeatherDisplay:10.37,2013-10-04 09:37:00,
2013-10-04 02:42:00,66.7,27.7,30.03,NNW,334,9.2,9.2,23,0.00,CLR,,0.00,WeatherDisplay:10.37,2013-10-04 09:42:00,
2013-10-04 02:47:00,66.6,28.6,30.03,NNW,347,11.5,11.5,24,0.00,CLR,,0.00,WeatherDisplay:10.37,2013-10-04 09:47:00,
2013-10-04 02:52:00,66.6,28.6,30.03,NW,322,10.4,10.4,24,0.00,CLR,,0.00,WeatherDisplay:10.37,2013-10-04 09:52:00,
2013-10-04 02:57:00,66.4,28.5,30.03,NW,326,11.5,11.5,24,0.00,CLR,,0.00,WeatherDisplay:10.37,2013-10-04 09:57:00,
2013-10-04 03:02:00,66.6,28.6,30.03,NNW,342,13.8,13.8,24,0.00,CLR,,0.00,WeatherDisplay:10.37,2013-10-04 10:02:00,
2013-10-04 03:07:00,66.3,28.4,30.03,NNW,331,13.8,13.8,24,0.00,CLR,,0.00,WeatherDisplay:10.37,2013-10-04 10:07:00,
2013-10-04 03:12:00,66.0,28.1,30.03,North,4,13.8,13.8,24,0.00,CLR,,0.00,WeatherDisplay:10.37,2013-10-04 10:12:00,
2013-10-04 03:17:00,66.2,28.3,30.03,North,353,13.8,13.8,24,0.00,CLR,,0.00,WeatherDisplay:10.37,2013-10-04 10:17:00,
2013-10-04 03:22:00,66.0,28.1,30.03,NNW,338,15.0,15.0,24,0.00,CLR,,0.00,WeatherDisplay:10.37,2013-10-04 10:22:00,
2013-10-04 03:27:00,65.8,29.0,30.03,WNW,292,11.5,11.5,25,0.00,CLR,,0.00,WeatherDisplay:10.37,2013-10-04 10:27:00,
2013-10-04 03:32:00,65.9,28.1,30.03,NNW,342,19.6,19.6,24,0.00,CLR,,0.00,WeatherDisplay:10.37,2013-10-04 10:32:00,
2013-10-04 03:37:00,66.1,28.2,30.02,NW,308,10.4,10.4,24,0.00,CLR,,0.00,WeatherDisplay:10.37,2013-10-04 10:37:00,
2013-10-04 03:42:00,65.9,28.1,30.02,NNW,345,17.3,17.3,24,0.00,CLR,,0.00,WeatherDisplay:10.37,2013-10-04 10:42:00,
2013-10-04 03:47:00,66.1,28.2,30.02,North,357,11.5,11.5,24,0.00,CLR,,0.00,WeatherDisplay:10.37,2013-10-04 10:47:00,
2013-10-04 03:52:00,65.9,28.1,30.02,NW,311,10.4,10.4,24,0.00,CLR,,0.00,WeatherDisplay:10.37,2013-10-04 10:52:00,
2013-10-04 03:57:00,65.6,28.8,30.02,NNE,13,19.6,19.6,25,0.00,CLR,,0.00,WeatherDisplay:10.37,2013-10-04 10:57:00,
2013-10-04 04:02:00,65.7,28.9,30.02,NW,316,13.8,13.8,25,0.00,CLR,,0.00,WeatherDisplay:10.37,2013-10-04 11:02:00,
2013-10-04 04:07:00,65.4,28.6,30.02,NW,318,8.1,8.1,25,0.00,CLR,,0.00,WeatherDisplay:10.37,2013-10-04 11:07:00,
2013-10-04 04:12:00,65.4,28.6,30.03,North,360,12.7,12.7,25,0.00,CLR,,0.00,WeatherDisplay:10.37,2013-10-04 11:12:00,
2013-10-04 04:17:00,65.4,28.6,30.03,WNW,297,16.1,16.1,25,0.00,CLR,,0.00,WeatherDisplay:10.37,2013-10-04 11:17:00,
2013-10-04 04:22:00,65.3,28.5,30.02,NW,314,11.5,11.5,25,0.00,CLR,,0.00,WeatherDisplay:10.37,2013-10-04 11:22:00,
2013-10-04 04:27:00,65.1,28.4,30.02,North,352,20.7,20.7,25,0.00,CLR,,0.00,WeatherDisplay:10.37,2013-10-04 11:27:00,
2013-10-04 04:32:00,65.0,28.3,30.02,NNW,345,11.5,11.5,25,0.00,CLR,,0.00,WeatherDisplay:10.37,2013-10-04 11:32:00,
2013-10-04 04:37:00,64.9,28.2,30.02,WNW,295,9.2,9.2,25,0.00,CLR,,0.00,WeatherDisplay:10.37,2013-10-04 11:37:00,
2013-10-04 04:42:00,65.1,28.4,30.02,NNW,345,11.5,11.5,25,0.00,CLR,,0.00,WeatherDisplay:10.37,2013-10-04 11:42:00,
2013-10-04 04:47:00,64.8,29.1,30.02,NW,315,10.4,10.4,26,0.00,CLR,,0.00,WeatherDisplay:10.37,2013-10-04 11:47:00,
2013-10-04 04:52:00,64.7,29.0,30.02,NNW,330,11.5,11.5,26,0.00,CLR,,0.00,WeatherDisplay:10.37,2013-10-04 11:52:00,
2013-10-04 04:57:00,64.7,29.0,30.02,NNW,328,15.0,15.0,26,0.00,CLR,,0.00,WeatherDisplay:10.37,2013-10-04 11:57:00,
2013-10-04 05:02:00,64.7,29.0,30.02,NW,325,11.5,11.5,26,0.00,CLR,,0.00,WeatherDisplay:10.37,2013-10-04 12:02:00,
2013-10-04 05:07:00,64.6,28.9,30.02,North,353,9.2,9.2,26,0.00,CLR,,0.00,WeatherDisplay:10.37,2013-10-04 12:07:00,
2013-10-04 05:12:00,64.4,28.7,30.02,NNW,338,9.2,9.2,26,0.00,CLR,,0.00,WeatherDisplay:10.37,2013-10-04 12:12:00,
2013-10-04 05:17:00,64.4,28.7,30.02,NNW,345,14.0,14.0,26,0.00,CLR,,0.00,WeatherDisplay:10.37,2013-10-04 12:17:00,
2013-10-04 05:22:00,64.7,29.0,30.02,NNW,345,11.5,11.5,26,0.00,CLR,,0.00,WeatherDisplay:10.37,2013-10-04 12:22:00,
2013-10-04 05:27:00,64.9,28.2,30.02,NNE,19,19.6,19.6,25,0.00,CLR,,0.00,WeatherDisplay:10.37,2013-10-04 12:27:00,
2013-10-04 05:32:00,65.0,28.3,30.02,NNW,340,11.5,11.5,25,0.00,CLR,,0.00,WeatherDisplay:10.37,2013-10-04 12:32:00,
2013-10-04 05:37:00,64.8,28.1,30.02,North,349,10.4,10.4,25,0.00,CLR,,0.00,WeatherDisplay:10.37,2013-10-04 12:37:00,
2013-10-04 05:42:00,64.2,28.6,30.02,NW,311,11.5,11.5,26,0.00,CLR,,0.00,WeatherDisplay:10.37,2013-10-04 12:42:00,
2013-10-04 05:47:00,64.6,27.9,30.03,NNW,337,13.8,13.8,25,0.00,CLR,,0.00,WeatherDisplay:10.37,2013-10-04 12:47:00,
2013-10-04 05:52:00,64.9,28.2,30.03,North,357,10.4,10.4,25,0.00,CLR,,0.00,WeatherDisplay:10.37,2013-10-04 12:52:00,
2013-10-04 05:57:00,65.2,27.5,30.03,NW,309,6.9,6.9,24,0.00,CLR,,0.00,WeatherDisplay:10.37,2013-10-04 12:57:00,
2013-10-04 06:02:00,65.1,27.4,30.03,NNE,13,11.5,11.5,24,0.00,CLR,,0.00,WeatherDisplay:10.37,2013-10-04 13:02:00,
2013-10-04 06:07:00,65.1,27.4,30.03,NW,305,11.5,11.5,24,0.00,CLR,,0.00,WeatherDisplay:10.37,2013-10-04 13:07:00,
2013-10-04 06:12:00,65.0,27.3,30.03,NNW,333,11.5,11.5,24,0.00,CLR,,0.00,WeatherDisplay:10.37,2013-10-04 13:12:00,
2013-10-04 06:17:00,64.7,28.0,30.03,NNE,19,9.2,9.2,25,0.00,CLR,,0.00,WeatherDisplay:10.37,2013-10-04 13:17:00,
2013-10-04 06:22:00,64.6,27.9,30.03,North,1,8.1,8.1,25,0.00,CLR,,0.00,WeatherDisplay:10.37,2013-10-04 13:22:00,
2013-10-04 06:27:00,64.8,27.1,30.04,NW,323,11.5,11.5,24,0.00,CLR,,0.00,WeatherDisplay:10.37,2013-10-04 13:27:00,
2013-10-04 06:32:00,64.7,27.0,30.04,NW,326,11.5,11.5,24,0.00,CLR,,0.00,WeatherDisplay:10.37,2013-10-04 13:32:00,
2013-10-04 06:37:00,64.3,27.7,30.04,NNW,333,11.5,11.5,25,0.00,CLR,,0.00,WeatherDisplay:10.37,2013-10-04 13:37:00,
2013-10-04 06:42:00,64.2,27.6,30.04,NNW,339,12.0,12.0,25,0.00,CLR,,0.00,WeatherDisplay:10.37,2013-10-04 13:42:00,
2013-10-04 06:47:00,64.2,27.6,30.04,North,353,16.1,16.1,25,0.00,CLR,,0.00,WeatherDisplay:10.37,2013-10-04 13:47:00,
2013-10-04 06:52:00,64.4,27.8,30.04,NNW,338,16.1,16.1,25,0.00,CLR,,0.00,WeatherDisplay:10.37,2013-10-04 13:52:00,
2013-10-04 06:57:00,64.3,27.7,30.04,North,1,12.0,12.0,25,0.00,CLR,,0.00,WeatherDisplay:10.37,2013-10-04 13:57:00,
2013-10-04 07:02:00,64.4,27.8,30.04,NW,322,8.1,8.1,25,0.00,CLR,,0.00,WeatherDisplay:10.37,2013-10-04 14:02:00,
2013-10-04 07:07:00,64.3,27.7,30.04,NNW,336,19.6,19.6,25,0.00,CLR,,0.00,WeatherDisplay:10.37,2013-10-04 14:07:00,
2013-10-04 07:12:00,64.1,27.5,30.05,NW,307,9.2,9.2,25,0.00,CLR,,0.00,WeatherDisplay:10.37,2013-10-04 14:12:00,
2013-10-04 07:17:00,63.6,28.1,30.04,NNW,336,8.0,8.0,26,0.00,CLR,,0.00,WeatherDisplay:10.37,2013-10-04 14:17:00,
2013-10-04 07:22:00,63.8,27.3,30.04,North,359,12.7,12.7,25,0.00,CLR,,0.00,WeatherDisplay:10.37,2013-10-04 14:22:00,
2013-10-04 07:27:00,64.2,26.6,30.05,NNW,342,16.1,16.1,24,0.00,CLR,,0.00,WeatherDisplay:10.37,2013-10-04 14:27:00,
2013-10-04 07:32:00,65.0,27.3,30.05,NNW,345,17.3,17.3,24,0.00,CLR,,0.00,WeatherDisplay:10.37,2013-10-04 14:32:00,
2013-10-04 07:37:00,65.1,27.4,30.05,NNE,19,19.6,19.6,24,0.00,CLR,,0.00,WeatherDisplay:10.37,2013-10-04 14:37:00,
2013-10-04 07:42:00,65.3,27.5,30.05,North,9,17.3,17.3,24,0.00,CLR,,0.00,WeatherDisplay:10.37,2013-10-04 14:42:00,
2013-10-04 07:47:00,65.2,27.5,30.05,NNW,340,15.0,15.0,24,0.00,CLR,,0.00,WeatherDisplay:10.37,2013-10-04 14:47:00,
2013-10-04 07:52:00,65.3,27.5,30.05,NNW,333,13.8,13.8,24,0.00,CLR,,0.00,WeatherDisplay:10.37,2013-10-04 14:52:00,
2013-10-04 07:58:00,65.7,27.9,30.05,North,358,17.3,17.3,24,0.00,CLR,,0.00,WeatherDisplay:10.37,2013-10-04 14:58:00,
2013-10-04 08:03:00,65.7,26.9,30.05,North,5,19.6,19.6,23,0.00,CLR,,0.00,WeatherDisplay:10.37,2013-10-04 15:03:00,
2013-10-04 08:08:00,66.0,28.1,30.05,North,356,16.1,16.1,24,0.00,CLR,,0.00,WeatherDisplay:10.37,2013-10-04 15:08:00,
2013-10-04 08:13:00,66.2,27.3,30.06,NNE,14,19.6,19.6,23,0.00,CLR,,0.00,WeatherDisplay:10.37,2013-10-04 15:13:00,
2013-10-04 08:18:00,66.5,27.5,30.06,North,360,17.3,17.3,23,0.00,CLR,,0.00,WeatherDisplay:10.37,2013-10-04 15:18:00,
2013-10-04 08:23:00,66.8,27.8,30.06,NNE,26,17.3,17.3,23,0.00,CLR,,0.00,WeatherDisplay:10.37,2013-10-04 15:23:00,
2013-10-04 08:28:00,67.1,28.0,30.06,NNW,347,12.0,12.7,23,0.00,CLR,,0.00,WeatherDisplay:10.37,2013-10-04 15:28:00,
2013-10-04 08:33:00,67.4,27.2,30.06,North,9,17.3,17.3,22,0.00,CLR,,0.00,WeatherDisplay:10.37,2013-10-04 15:33:00,
2013-10-04 08:38:00,67.5,27.3,30.06,NW,319,15.0,15.0,22,0.00,CLR,,0.00,WeatherDisplay:10.37,2013-10-04 15:38:00,
2013-10-04 08:43:00,67.6,27.4,30.06,WNW,299,19.6,19.6,22,0.00,CLR,,0.00,WeatherDisplay:10.37,2013-10-04 15:43:00,
2013-10-04 08:48:00,67.9,27.6,30.07,NNE,19,13.8,13.8,22,0.00,CLR,,0.00,WeatherDisplay:10.37,2013-10-04 15:48:00,
2013-10-04 08:53:00,68.1,26.7,30.07,NNW,327,16.1,16.1,21,0.00,CLR,,0.00,WeatherDisplay:10.37,2013-10-04 15:53:00,
2013-10-04 08:58:00,68.4,28.0,30.07,NNE,15,15.0,15.0,22,0.00,CLR,,0.00,WeatherDisplay:10.37,2013-10-04 15:58:00,
2013-10-04 09:03:00,68.7,28.3,30.07,NNW,342,13.8,13.8,22,0.00,CLR,,0.00,WeatherDisplay:10.37,2013-10-04 16:03:00,
2013-10-04 09:08:00,69.0,27.4,30.07,NW,325,12.7,12.7,21,0.00,CLR,,0.00,WeatherDisplay:10.37,2013-10-04 16:08:00,
2013-10-04 09:13:00,69.2,27.6,30.07,North,358,16.1,16.1,21,0.00,CLR,,0.00,WeatherDisplay:10.37,2013-10-04 16:13:00,
2013-10-04 09:18:00,69.5,27.8,30.08,North,9,19.0,19.0,21,0.00,CLR,,0.00,WeatherDisplay:10.37,2013-10-04 16:18:00,
2013-10-04 09:23:00,69.7,26.8,30.08,ENE,76,20.7,20.7,20,0.00,CLR,,0.00,WeatherDisplay:10.37,2013-10-04 16:23:00,
2013-10-04 09:28:00,70.0,27.0,30.08,NE,37,20.7,20.7,20,0.00,CLR,,0.00,WeatherDisplay:10.37,2013-10-04 16:28:00,
2013-10-04 09:33:00,70.2,26.0,30.08,NNE,19,25.0,25.0,19,0.00,CLR,,0.00,WeatherDisplay:10.37,2013-10-04 16:33:00,
2013-10-04 09:38:00,70.3,27.3,30.08,NNE,15,29.9,29.9,20,0.00,CLR,,0.00,WeatherDisplay:10.37,2013-10-04 16:38:00,
2013-10-04 09:43:00,70.5,26.2,30.08,NE,50,27.6,27.6,19,0.00,CLR,,0.00,WeatherDisplay:10.37,2013-10-04 16:43:00,
2013-10-04 09:48:00,70.7,26.4,30.08,ENE,60,22.0,22.0,19,0.00,CLR,,0.00,WeatherDisplay:10.37,2013-10-04 16:48:00,
2013-10-04 09:53:00,70.7,26.4,30.08,NE,43,23.0,23.0,19,0.00,CLR,,0.00,WeatherDisplay:10.37,2013-10-04 16:53:00,
2013-10-04 09:58:00,71.1,26.7,30.09,ENE,60,24.2,24.2,19,0.00,CLR,,0.00,WeatherDisplay:10.37,2013-10-04 16:58:00,
2013-10-04 10:03:00,71.2,26.8,30.09,NE,50,20.7,20.7,19,0.00,CLR,,0.00,WeatherDisplay:10.37,2013-10-04 17:03:00,
2013-10-04 10:08:00,71.1,26.7,30.09,NNE,32,25.3,25.3,19,0.00,CLR,,0.00,WeatherDisplay:10.37,2013-10-04 17:08:00,
2013-10-04 10:13:00,71.1,28.0,30.09,NNW,331,16.1,16.1,20,0.00,CLR,,0.00,WeatherDisplay:10.37,2013-10-04 17:13:00,
2013-10-04 10:18:00,71.2,26.8,30.09,North,8,27.6,27.6,19,0.00,CLR,,0.00,WeatherDisplay:10.37,2013-10-04 17:18:00,
2013-10-04 10:23:00,71.3,26.9,30.09,NE,40,19.6,19.6,19,0.00,CLR,,0.00,WeatherDisplay:10.37,2013-10-04 17:23:00,
2013-10-04 10:28:00,71.4,28.2,30.09,NNE,23,24.2,24.2,20,0.00,CLR,,0.00,WeatherDisplay:10.37,2013-10-04 17:28:00,
2013-10-04 10:33:00,71.5,28.3,30.09,NE,43,25.0,25.0,20,0.00,CLR,,0.00,WeatherDisplay:10.37,2013-10-04 17:33:00,
2013-10-04 11:03:00,72.1,27.5,30.10,NNE,32,25.3,25.3,19,0.00,CLR,,0.00,WeatherDisplay:10.37,2013-10-04 18:03:00,
2013-10-04 11:08:00,72.6,29.2,30.10,NNE,29,15.0,15.0,20,0.00,CLR,,0.00,WeatherDisplay:10.37,2013-10-04 18:08:00,
2013-10-04 11:13:00,72.5,27.9,30.10,NE,41,21.9,21.9,19,0.00,CLR,,0.00,WeatherDisplay:10.37,2013-10-04 18:13:00,
2013-10-04 11:18:00,72.8,28.1,30.10,ENE,64,16.1,16.1,19,0.00,CLR,,0.00,WeatherDisplay:10.37,2013-10-04 18:18:00,
2013-10-04 11:23:00,72.9,28.2,30.10,NNE,21,15.0,15.0,19,0.00,CLR,,0.00,WeatherDisplay:10.37,2013-10-04 18:23:00,
2013-10-04 11:28:00,73.2,28.4,30.11,NNE,21,18.4,18.4,19,0.00,CLR,,0.00,WeatherDisplay:10.37,2013-10-04 18:28:00,
2013-10-04 11:33:00,73.4,27.3,30.10,North,1,19.6,19.6,18,0.00,CLR,,0.00,WeatherDisplay:10.37,2013-10-04 18:33:00,
2013-10-04 11:38:00,73.9,29.0,30.10,NNW,342,11.5,11.5,19,0.00,CLR,,0.00,WeatherDisplay:10.37,2013-10-04 18:38:00,
2013-10-04 11:43:00,74.0,27.8,30.10,NE,46,17.3,17.3,18,0.00,CLR,,0.00,WeatherDisplay:10.37,2013-10-04 18:43:00,
2013-10-04 11:48:00,74.1,27.9,30.10,NNE,28,23.0,23.0,18,0.00,CLR,,0.00,WeatherDisplay:10.37,2013-10-04 18:48:00,
2013-10-04 11:53:00,74.4,28.1,30.09,NW,325,19.6,19.6,18,0.00,CLR,,0.00,WeatherDisplay:10.37,2013-10-04 18:53:00,
2013-10-04 11:58:00,74.8,28.4,30.09,NNE,29,24.2,24.2,18,0.00,CLR,,0.00,WeatherDisplay:10.37,2013-10-04 18:58:00,
2013-10-04 12:03:00,75.0,28.6,30.08,NNW,342,24.2,24.2,18,0.00,CLR,,0.00,WeatherDisplay:10.37,2013-10-04 19:03:00,
2013-10-04 12:08:00,75.6,27.7,30.08,NNW,344,21.0,21.0,17,0.00,CLR,,0.00,WeatherDisplay:10.37,2013-10-04 19:08:00,
2013-10-04 12:13:00,75.7,29.2,30.08,North,5,19.6,19.6,18,0.00,CLR,,0.00,WeatherDisplay:10.37,2013-10-04 19:13:00,
2013-10-04 12:18:00,76.1,26.6,30.08,NNE,23,23.0,23.0,16,0.00,CLR,,0.00,WeatherDisplay:10.37,2013-10-04 19:18:00,
2013-10-04 12:23:00,76.1,28.1,30.08,ENE,78,18.4,18.4,17,0.00,CLR,,0.00,WeatherDisplay:10.37,2013-10-04 19:23:00,
2013-10-04 12:28:00,76.4,28.3,30.08,NE,53,16.1,16.1,17,0.00,CLR,,0.00,WeatherDisplay:10.37,2013-10-04 19:28:00,
2013-10-04 12:33:00,76.3,28.3,30.09,NE,34,19.6,19.6,17,0.00,CLR,,0.00,WeatherDisplay:10.37,2013-10-04 19:33:00,
2013-10-04 12:38:00,76.6,28.5,30.09,NNE,27,15.0,15.0,17,0.00,CLR,,0.00,WeatherDisplay:10.37,2013-10-04 19:38:00,
2013-10-04 12:43:00,76.5,28.4,30.09,NNE,32,15.0,15.0,17,0.00,CLR,,0.00,WeatherDisplay:10.37,2013-10-04 19:43:00,
2013-10-04 12:48:00,76.8,28.7,30.08,NNE,32,16.1,16.1,17,0.00,CLR,,0.00,WeatherDisplay:10.37,2013-10-04 19:48:00,
2013-10-04 12:53:00,77.4,27.7,30.08,North,1,12.0,12.0,16,0.00,CLR,,0.00,WeatherDisplay:10.37,2013-10-04 19:53:00,
2013-10-04 12:58:00,77.5,27.7,30.08,NNW,336,11.5,11.5,16,0.00,CLR,,0.00,WeatherDisplay:10.37,2013-10-04 19:58:00,
2013-10-04 13:03:00,77.1,27.4,30.08,ENE,63,15.0,15.0,16,0.00,CLR,,0.00,WeatherDisplay:10.37,2013-10-04 20:03:00,
2013-10-04 13:08:00,77.2,27.5,30.08,NE,43,12.7,12.7,16,0.00,CLR,,0.00,WeatherDisplay:10.37,2013-10-04 20:08:00,
2013-10-04 13:13:00,77.5,27.7,30.08,NNW,340,15.0,15.0,16,0.00,CLR,,0.00,WeatherDisplay:10.37,2013-10-04 20:13:00,
2013-10-04 13:18:00,77.6,27.8,30.08,North,354,10.4,10.4,16,0.00,CLR,,0.00,WeatherDisplay:10.37,2013-10-04 20:18:00,
2013-10-04 13:23:00,77.7,27.9,30.08,NNE,27,12.7,12.7,16,0.00,CLR,,0.00,WeatherDisplay:10.37,2013-10-04 20:23:00,
2013-10-04 13:28:00,77.5,29.2,30.07,NNE,32,12.7,12.7,17,0.00,CLR,,0.00,WeatherDisplay:10.37,2013-10-04 20:28:00,
2013-10-04 13:33:00,77.9,28.1,30.07,ENE,63,13.0,13.0,16,0.00,CLR,,0.00,WeatherDisplay:10.37,2013-10-04 20:33:00,
2013-10-04 13:38:00,78.0,26.6,30.07,North,5,16.1,16.1,15,0.00,CLR,,0.00,WeatherDisplay:10.37,2013-10-04 20:38:00,
2013-10-04 13:43:00,78.1,26.7,30.07,NNE,23,18.4,18.4,15,0.00,CLR,,0.00,WeatherDisplay:10.37,2013-10-04 20:43:00,
2013-10-04 13:48:00,78.0,26.6,30.07,NNE,12,19.6,19.6,15,0.00,CLR,,0.00,WeatherDisplay:10.37,2013-10-04 20:48:00,
2013-10-04 13:53:00,78.0,29.6,30.06,ENE,63,11.5,11.5,17,0.00,CLR,,0.00,WeatherDisplay:10.37,2013-10-04 20:53:00,
2013-10-04 13:58:00,78.7,28.7,30.06,NE,53,11.5,11.5,16,0.00,CLR,,0.00,WeatherDisplay:10.37,2013-10-04 20:58:00,
2013-10-04 14:03:00,78.6,27.1,30.06,NNE,32,21.9,21.9,15,0.00,CLR,,0.00,WeatherDisplay:10.37,2013-10-04 21:03:00,
2013-10-04 14:08:00,78.8,28.8,30.06,ENE,71,13.0,13.0,16,0.00,CLR,,0.00,WeatherDisplay:10.37,2013-10-04 21:08:00,
2013-10-04 14:13:00,79.0,27.4,30.06,NE,52,12.0,12.0,15,0.00,CLR,,0.00,WeatherDisplay:10.37,2013-10-04 21:13:00,
2013-10-04 14:18:00,79.5,27.8,30.05,North,8,12.7,12.7,15,0.00,CLR,,0.00,WeatherDisplay:10.37,2013-10-04 21:18:00,
2013-10-04 14:23:00,79.3,25.9,30.06,ENE,60,13.8,13.8,14,0.00,CLR,,0.00,WeatherDisplay:10.37,2013-10-04 21:23:00,
2013-10-04 14:28:00,79.3,27.6,30.06,ENE,58,10.4,10.4,15,0.00,CLR,,0.00,WeatherDisplay:10.37,2013-10-04 21:28:00,
2013-10-04 14:33:00,79.7,27.9,30.05,North,11,11.5,11.5,15,0.00,CLR,,0.00,WeatherDisplay:10.37,2013-10-04 21:33:00,
2013-10-04 14:38:00,80.0,28.2,30.05,NNE,16,10.4,10.4,15,0.00,CLR,,0.00,WeatherDisplay:10.37,2013-10-04 21:38:00,
2013-10-04 14:43:00,80.5,26.9,30.05,NE,36,12.7,12.7,14,0.00,CLR,,0.00,WeatherDisplay:10.37,2013-10-04 21:43:00,
2013-10-04 14:48:00,80.2,26.7,30.05,NNE,18,18.4,18.4,14,0.00,CLR,,0.00,WeatherDisplay:10.37,2013-10-04 21:48:00,
2013-10-04 14:53:00,80.1,28.3,30.05,North,349,15.0,15.0,15,0.00,CLR,,0.00,WeatherDisplay:10.37,2013-10-04 21:53:00,
2013-10-04 14:58:00,80.0,28.2,30.05,NNE,13,10.4,10.4,15,0.00,CLR,,0.00,WeatherDisplay:10.37,2013-10-04 21:58:00,
2013-10-04 15:03:00,80.2,28.3,30.05,North,4,13.8,13.8,15,0.00,CLR,,0.00,WeatherDisplay:10.37,2013-10-04 22:03:00,
2013-10-04 15:08:00,80.1,28.3,30.05,NNW,345,12.7,12.7,15,0.00,CLR,,0.00,WeatherDisplay:10.37,2013-10-04 22:08:00,
2013-10-04 15:13:00,80.2,26.7,30.05,NE,56,17.3,17.3,14,0.00,CLR,,0.00,WeatherDisplay:10.37,2013-10-04 22:13:00,
2013-10-04 15:18:00,80.4,26.8,30.04,NNE,21,13.8,13.8,14,0.00,CLR,,0.00,WeatherDisplay:10.37,2013-10-04 22:18:00,
2013-10-04 15:23:00,80.7,28.7,30.05,NNE,30,13.0,13.0,15,0.00,CLR,,0.00,WeatherDisplay:10.37,2013-10-04 22:23:00,
2013-10-04 15:28:00,80.8,27.1,30.05,NE,51,12.7,12.7,14,0.00,CLR,,0.00,WeatherDisplay:10.37,2013-10-04 22:28:00,
2013-10-04 15:33:00,81.0,27.3,30.05,NNE,23,12.0,12.0,14,0.00,CLR,,0.00,WeatherDisplay:10.37,2013-10-04 22:33:00,
2013-10-04 15:38:00,80.9,27.2,30.04,ENE,60,16.1,16.1,14,0.00,CLR,,0.00,WeatherDisplay:10.37,2013-10-04 22:38:00,
2013-10-04 15:43:00,81.0,27.3,30.04,NNE,32,17.3,17.3,14,0.00,CLR,,0.00,WeatherDisplay:10.37,2013-10-04 22:43:00,
2013-10-04 15:48:00,80.7,27.0,30.04,NNE,25,11.5,11.5,14,0.00,CLR,,0.00,WeatherDisplay:10.37,2013-10-04 22:48:00,
2013-10-04 15:53:00,80.7,27.0,30.04,NNE,15,12.7,12.7,14,0.00,CLR,,0.00,WeatherDisplay:10.37,2013-10-04 22:53:00,
2013-10-04 15:58:00,80.9,27.2,30.04,NNW,330,8.1,8.1,14,0.00,CLR,,0.00,WeatherDisplay:10.37,2013-10-04 22:58:00,
2013-10-04 16:03:00,81.1,27.4,30.04,North,349,15.0,15.0,14,0.00,CLR,,0.00,WeatherDisplay:10.37,2013-10-04 23:03:00,
2013-10-04 16:08:00,81.2,27.4,30.04,NNW,343,11.5,11.5,14,0.00,CLR,,0.00,WeatherDisplay:10.37,2013-10-04 23:08:00,
2013-10-04 16:13:00,81.1,25.6,30.04,NNW,340,15.0,15.0,13,0.00,CLR,,0.00,WeatherDisplay:10.37,2013-10-04 23:13:00,
2013-10-04 16:18:00,81.1,25.6,30.04,NE,39,16.1,16.1,13,0.00,CLR,,0.00,WeatherDisplay:10.37,2013-10-04 23:18:00,
2013-10-04 16:23:00,81.2,25.7,30.04,NE,36,13.8,13.8,13,0.00,CLR,,0.00,WeatherDisplay:10.37,2013-10-04 23:23:00,
2013-10-04 16:28:00,81.1,23.7,30.04,NNE,24,12.7,12.7,12,0.00,CLR,,0.00,WeatherDisplay:10.37,2013-10-04 23:28:00,
2013-10-04 16:33:00,81.1,25.6,30.04,NW,322,10.4,10.4,13,0.00,CLR,,0.00,WeatherDisplay:10.37,2013-10-04 23:33:00,
2013-10-04 16:38:00,81.0,25.5,30.03,NNW,343,13.8,13.8,13,0.00,CLR,,0.00,WeatherDisplay:10.37,2013-10-04 23:38:00,
2013-10-04 16:43:00,81.1,25.6,30.03,North,9,10.4,10.4,13,0.00,CLR,,0.00,WeatherDisplay:10.37,2013-10-04 23:43:00,
2013-10-04 16:48:00,81.2,25.7,30.03,North,357,10.4,10.4,13,0.00,CLR,,0.00,WeatherDisplay:10.37,2013-10-04 23:48:00,
2013-10-04 16:53:00,81.3,25.7,30.03,NE,56,10.4,10.5,13,0.00,CLR,,0.00,WeatherDisplay:10.37,2013-10-04 23:53:00,
2013-10-04 16:58:00,81.1,25.6,30.03,NE,56,12.7,12.7,13,0.00,CLR,,0.00,WeatherDisplay:10.37,2013-10-04 23:58:00,
2013-10-04 17:03:00,81.1,25.6,30.03,North,6,9.2,9.2,13,0.00,CLR,,0.00,WeatherDisplay:10.37,2013-10-05 00:03:00,
2013-10-04 17:08:00,81.2,25.7,30.03,NW,319,6.9,6.9,13,0.00,CLR,,0.00,WeatherDisplay:10.37,2013-10-05 00:08:00,
2013-10-04 17:13:00,81.1,25.6,30.03,NNE,13,9.2,9.2,13,0.00,CLR,,0.00,WeatherDisplay:10.37,2013-10-05 00:13:00,
2013-10-04 17:18:00,81.1,27.4,30.03,NNE,20,6.0,6.0,14,0.00,CLR,,0.00,WeatherDisplay:10.37,2013-10-05 00:18:00,
2013-10-04 17:23:00,81.0,27.3,30.03,NE,36,11.5,11.5,14,0.00,CLR,,0.00,WeatherDisplay:10.37,2013-10-05 00:23:00,
2013-10-04 17:28:00,80.8,27.1,30.03,NW,316,8.1,8.1,14,0.00,CLR,,0.00,WeatherDisplay:10.37,2013-10-05 00:28:00,
2013-10-04 17:33:00,80.6,27.0,30.03,North,356,10.4,10.4,14,0.00,CLR,,0.00,WeatherDisplay:10.37,2013-10-05 00:33:00,
2013-10-04 17:38:00,80.5,26.9,30.03,NE,46,9.2,9.2,14,0.00,CLR,,0.00,WeatherDisplay:10.37,2013-10-05 00:38:00,
2013-10-04 17:43:00,80.3,24.9,30.03,NNE,18,8.1,8.1,13,0.00,CLR,,0.00,WeatherDisplay:10.37,2013-10-05 00:43:00,
2013-10-04 17:48:00,80.2,26.7,30.03,ENE,57,11.5,11.5,14,0.00,CLR,,0.00,WeatherDisplay:10.37,2013-10-05 00:48:00,
2013-10-04 17:53:00,80.0,26.5,30.03,NE,46,9.0,9.0,14,0.00,CLR,,0.00,WeatherDisplay:10.37,2013-10-05 00:53:00,
2013-10-04 17:58:00,79.8,26.3,30.03,NE,43,9.2,9.2,14,0.00,CLR,,0.00,WeatherDisplay:10.37,2013-10-05 00:58:00,
2013-10-04 18:03:00,79.7,26.3,30.03,North,349,11.5,11.5,14,0.00,CLR,,0.00,WeatherDisplay:10.37,2013-10-05 01:03:00,
2013-10-04 18:08:00,79.4,26.0,30.03,NE,44,14.0,14.0,14,0.00,CLR,,0.00,WeatherDisplay:10.37,2013-10-05 01:08:00,
2013-10-04 18:13:00,79.3,25.9,30.03,NNE,32,9.2,9.2,14,0.00,CLR,,0.00,WeatherDisplay:10.37,2013-10-05 01:13:00,
2013-10-04 18:18:00,78.8,25.5,30.03,NNW,340,10.4,10.4,14,0.00,CLR,,0.00,WeatherDisplay:10.37,2013-10-05 01:18:00,
2013-10-04 18:23:00,78.5,27.0,30.03,North,349,9.0,9.0,15,0.00,CLR,,0.00,WeatherDisplay:10.37,2013-10-05 01:23:00,
2013-10-04 18:28:00,78.2,25.1,30.03,North,354,11.5,11.5,14,0.00,CLR,,0.00,WeatherDisplay:10.37,2013-10-05 01:28:00,
2013-10-04 18:33:00,78.0,24.9,30.03,North,354,8.1,8.7,14,0.00,CLR,,0.00,WeatherDisplay:10.37,2013-10-05 01:33:00,
2013-10-04 18:38:00,77.7,26.3,30.03,NNE,16,9.2,9.2,15,0.00,CLR,,0.00,WeatherDisplay:10.37,2013-10-05 01:38:00,
2013-10-04 18:43:00,77.3,26.0,30.04,WNW,302,5.8,5.8,15,0.00,CLR,,0.00,WeatherDisplay:10.37,2013-10-05 01:43:00,
2013-10-04 18:48:00,76.7,27.1,30.03,North,9,4.6,4.6,16,0.00,CLR,,0.00,WeatherDisplay:10.37,2013-10-05 01:48:00,
2013-10-04 18:53:00,75.9,26.5,30.03,NNW,334,6.0,6.0,16,0.00,CLR,,0.00,WeatherDisplay:10.37,2013-10-05 01:53:00,
2013-10-04 18:58:00,75.9,26.5,30.03,NNE,12,8.1,8.1,16,0.00,CLR,,0.00,WeatherDisplay:10.37,2013-10-05 01:58:00,
2013-10-04 19:03:00,76.1,26.6,30.04,NW,308,3.5,3.5,16,0.00,CLR,,0.00,WeatherDisplay:10.37,2013-10-05 02:03:00,
2013-10-04 19:08:00,75.9,26.5,30.04,NW,305,5.8,5.8,16,0.00,CLR,,0.00,WeatherDisplay:10.37,2013-10-05 02:08:00,
2013-10-04 19:13:00,75.2,27.4,30.04,North,8,3.5,3.5,17,0.00,CLR,,0.00,WeatherDisplay:10.37,2013-10-05 02:13:00,
2013-10-04 19:18:00,75.1,25.8,30.04,WNW,294,9.2,9.2,16,0.00,CLR,,0.00,WeatherDisplay:10.37,2013-10-05 02:18:00,
2013-10-04 19:23:00,75.3,26.0,30.04,NNW,333,6.0,6.0,16,0.00,CLR,,0.00,WeatherDisplay:10.37,2013-10-05 02:23:00,
2013-10-04 19:28:00,75.3,24.4,30.04,NNW,327,8.1,8.1,15,0.00,CLR,,0.00,WeatherDisplay:10.37,2013-10-05 02:28:00,
2013-10-04 19:33:00,75.3,26.0,30.04,West,278,9.2,9.2,16,0.00,CLR,,0.00,WeatherDisplay:10.37,2013-10-05 02:33:00,
2013-10-04 19:38:00,75.4,24.5,30.04,North,349,9.2,9.2,15,0.00,CLR,,0.00,WeatherDisplay:10.37,2013-10-05 02:38:00,
2013-10-04 19:43:00,75.6,26.2,30.04,NW,309,4.6,4.6,16,0.00,CLR,,0.00,WeatherDisplay:10.37,2013-10-05 02:43:00,
2013-10-04 19:48:00,75.2,25.9,30.04,NNW,334,10.4,10.4,16,0.00,CLR,,0.00,WeatherDisplay:10.37,2013-10-05 02:48:00,
2013-10-04 19:53:00,74.9,25.6,30.04,NW,326,3.0,3.0,16,0.00,CLR,,0.00,WeatherDisplay:10.37,2013-10-05 02:53:00,
2013-10-04 19:58:00,74.6,25.4,30.05,WNW,296,3.5,3.5,16,0.00,CLR,,0.00,WeatherDisplay:10.37,2013-10-05 02:58:00,
2013-10-04 20:03:00,74.5,25.3,30.05,WNW,303,3.5,3.5,16,0.00,CLR,,0.00,WeatherDisplay:10.37,2013-10-05 03:03:00,
2013-10-04 20:08:00,74.1,26.5,30.05,West,278,2.3,2.3,17,0.00,CLR,,0.00,WeatherDisplay:10.37,2013-10-05 03:08:00,
2013-10-04 20:13:00,73.5,26.0,30.05,NW,323,3.5,3.5,17,0.00,CLR,,0.00,WeatherDisplay:10.37,2013-10-05 03:13:00,
2013-10-04 20:18:00,73.5,26.0,30.05,NW,311,4.6,4.6,17,0.00,CLR,,0.00,WeatherDisplay:10.37,2013-10-05 03:18:00,
2013-10-04 20:23:00,73.4,25.9,30.05,NW,309,3.5,3.5,17,0.00,CLR,,0.00,WeatherDisplay:10.37,2013-10-05 03:23:00,
2013-10-04 20:28:00,73.6,26.1,30.05,NW,307,4.6,4.6,17,0.00,CLR,,0.00,WeatherDisplay:10.37,2013-10-05 03:28:00,
2013-10-04 20:33:00,74.0,24.9,30.05,NW,314,3.5,3.5,16,0.00,CLR,,0.00,WeatherDisplay:10.37,2013-10-05 03:33:00,
2013-10-04 20:38:00,74.4,25.2,30.05,WNW,303,5.8,5.8,16,0.00,CLR,,0.00,WeatherDisplay:10.37,2013-10-05 03:38:00,
2013-10-04 20:43:00,74.3,25.2,30.05,WNW,299,4.6,4.6,16,0.00,CLR,,0.00,WeatherDisplay:10.37,2013-10-05 03:43:00,
2013-10-04 20:48:00,74.0,24.9,30.06,NW,308,4.6,4.6,16,0.00,CLR,,0.00,WeatherDisplay:10.37,2013-10-05 03:48:00,
2013-10-04 20:53:00,73.6,26.1,30.06,NW,311,3.5,3.5,17,0.00,CLR,,0.00,WeatherDisplay:10.37,2013-10-05 03:53:00,
2013-10-04 20:58:00,73.6,26.1,30.06,West,277,3.5,3.5,17,0.00,CLR,,0.00,WeatherDisplay:10.37,2013-10-05 03:58:00,
2013-10-04 21:01:00,73.5,26.0,30.06,West,260,4.6,5.2,17,0.00,CLR,,0.00,WeatherDisplay:10.37,2013-10-05 04:01:00,
2013-10-04 21:02:00,73.6,24.6,30.06,NW,309,11.5,11.5,16,0.00,CLR,,0.00,WeatherDisplay:10.37,2013-10-05 04:02:00,
2013-10-04 21:03:00,73.5,26.0,30.06,WNW,303,6.9,6.9,17,0.00,CLR,,0.00,WeatherDisplay:10.37,2013-10-05 04:03:00,
2013-10-04 21:08:00,73.5,26.0,30.06,West,264,8.1,8.1,17,0.00,CLR,,0.00,WeatherDisplay:10.37,2013-10-05 04:08:00,
2013-10-04 21:13:00,73.5,26.0,30.06,WNW,303,4.0,4.0,17,0.00,CLR,,0.00,WeatherDisplay:10.37,2013-10-05 04:13:00,
2013-10-04 21:14:00,73.4,25.9,30.06,West,277,6.9,6.9,17,0.00,CLR,,0.00,WeatherDisplay:10.37,2013-10-05 04:14:00,
2013-10-04 21:19:00,73.4,25.9,30.06,WNW,301,3.5,3.5,17,0.00,CLR,,0.00,WeatherDisplay:10.37,2013-10-05 04:19:00,
2013-10-04 21:24:00,73.4,25.9,30.06,West,264,3.5,3.5,17,0.00,CLR,,0.00,WeatherDisplay:10.37,2013-10-05 04:24:00,
2013-10-04 21:29:00,73.1,25.7,30.07,WNW,296,3.5,3.5,17,0.00,CLR,,0.00,WeatherDisplay:10.37,2013-10-05 04:29:00,
2013-10-04 21:34:00,73.3,25.8,30.07,WNW,299,7.0,7.0,17,0.00,CLR,,0.00,WeatherDisplay:10.37,2013-10-05 04:34:00,
2013-10-04 21:39:00,73.5,26.0,30.07,WNW,285,6.9,6.9,17,0.00,CLR,,0.00,WeatherDisplay:10.37,2013-10-05 04:39:00,
2013-10-04 21:44:00,73.3,25.8,30.07,WNW,293,4.6,4.6,17,0.00,CLR,,0.00,WeatherDisplay:10.37,2013-10-05 04:44:00,
2013-10-04 21:49:00,72.9,25.5,30.07,WNW,299,8.1,8.1,17,0.00,CLR,,0.00,WeatherDisplay:10.37,2013-10-05 04:49:00,
2013-10-04 21:54:00,73.4,25.9,30.07,NW,304,5.8,5.8,17,0.00,CLR,,0.00,WeatherDisplay:10.37,2013-10-05 04:54:00,
2013-10-04 21:59:00,73.3,25.8,30.08,WNW,303,4.6,4.6,17,0.00,CLR,,0.00,WeatherDisplay:10.37,2013-10-05 04:59:00,
2013-10-04 22:04:00,73.3,25.8,30.07,West,264,4.6,4.6,17,0.00,CLR,,0.00,WeatherDisplay:10.37,2013-10-05 05:04:00,
2013-10-04 22:09:00,73.2,25.7,30.07,WNW,287,6.9,6.9,17,0.00,CLR,,0.00,WeatherDisplay:10.37,2013-10-05 05:09:00,
2013-10-04 22:14:00,73.2,25.7,30.08,NW,304,6.0,6.0,17,0.00,CLR,,0.00,WeatherDisplay:10.37,2013-10-05 05:14:00,
2013-10-04 22:19:00,73.4,25.9,30.08,NW,312,8.1,8.1,17,0.00,CLR,,0.00,WeatherDisplay:10.37,2013-10-05 05:19:00,
2013-10-04 22:24:00,73.6,26.1,30.08,WNW,298,4.6,4.6,17,0.00,CLR,,0.00,WeatherDisplay:10.37,2013-10-05 05:24:00,
2013-10-04 22:29:00,73.6,26.1,30.08,NW,311,6.9,6.9,17,0.00,CLR,,0.00,WeatherDisplay:10.37,2013-10-05 05:29:00,
2013-10-04 22:34:00,73.6,26.1,30.08,NW,308,5.0,5.0,17,0.00,CLR,,0.00,WeatherDisplay:10.37,2013-10-05 05:34:00,
2013-10-04 22:39:00,74.0,26.4,30.08,NW,314,8.1,8.1,17,0.00,CLR,,0.00,WeatherDisplay:10.37,2013-10-05 05:39:00,
2013-10-04 22:44:00,73.9,26.3,30.08,NW,307,4.6,4.6,17,0.00,CLR,,0.00,WeatherDisplay:10.37,2013-10-05 05:44:00,
2013-10-04 22:49:00,73.8,26.2,30.08,North,355,7.0,7.0,17,0.00,CLR,,0.00,WeatherDisplay:10.37,2013-10-05 05:49:00,
2013-10-04 22:54:00,73.9,26.3,30.08,NW,309,9.2,9.2,17,0.00,CLR,,0.00,WeatherDisplay:10.37,2013-10-05 05:54:00,
2013-10-04 22:59:00,73.9,26.3,30.08,WNW,295,8.1,8.1,17,0.00,CLR,,0.00,WeatherDisplay:10.37,2013-10-05 05:59:00,
2013-10-04 23:04:00,73.7,26.1,30.08,NW,325,6.9,6.9,17,0.00,CLR,,0.00,WeatherDisplay:10.37,2013-10-05 06:04:00,
2013-10-04 23:09:00,73.7,26.1,30.09,NNW,336,10.4,10.4,17,0.00,CLR,,0.00,WeatherDisplay:10.37,2013-10-05 06:09:00,
2013-10-04 23:14:00,73.8,26.2,30.09,NNW,331,9.2,9.2,17,0.00,CLR,,0.00,WeatherDisplay:10.37,2013-10-05 06:14:00,
2013-10-04 23:19:00,73.7,26.1,30.09,NNW,328,8.1,8.1,17,0.00,CLR,,0.00,WeatherDisplay:10.37,2013-10-05 06:19:00,
2013-10-04 23:24:00,73.6,26.1,30.09,NNW,335,8.1,8.1,17,0.00,CLR,,0.00,WeatherDisplay:10.37,2013-10-05 06:24:00,
2013-10-04 23:29:00,73.4,25.9,30.09,NW,314,6.9,6.9,17,0.00,CLR,,0.00,WeatherDisplay:10.37,2013-10-05 06:29:00,
2013-10-04 23:34:00,72.9,26.9,30.09,NW,305,5.8,5.8,18,0.00,CLR,,0.00,WeatherDisplay:10.37,2013-10-05 06:34:00,
2013-10-04 23:39:00,72.7,26.7,30.09,NW,311,6.9,6.9,18,0.00,CLR,,0.00,WeatherDisplay:10.37,2013-10-05 06:39:00,
2013-10-04 23:44:00,72.9,26.9,30.09,North,1,7.0,7.0,18,0.00,CLR,,0.00,WeatherDisplay:10.37,2013-10-05 06:44:00,
2013-10-04 23:49:00,72.9,25.5,30.09,NW,308,10.4,10.4,17,0.00,CLR,,0.00,WeatherDisplay:10.37,2013-10-05 06:49:00,
2013-10-04 23:54:00,72.7,25.3,30.09,WNW,302,8.0,8.0,17,0.00,CLR,,0.00,WeatherDisplay:10.37,2013-10-05 06:54:00,
2013-10-04 23:59:00,72.5,25.2,30.09,NW,318,11.5,11.5,17,0.00,CLR,,0.00,WeatherDisplay:10.37,2013-10-05 06:59:00,